Latest Coastal Weather Observations for Hillarys Point Boat Harbour

IDW60701

Issued at 5:43 am WST Thursday 17 August 2017 (issued every 10 minutes, with the page automatically refreshed every 10 minutes)

About coastal observations | Map of coastal stations | Coastal observations for WA | Marine services | Other Formats
Station Details ID: 009265 Name: HILLARYS BOAT HARBOUR NTC AWS Lat: -31.83 Lon: 115.74 Height: 0.0 m
Data from the previous 72 hours. | See also: Recent months for locations in Western Australia
Date/Time
WST
Temp
°C
Wind Pressure Rain since
9am
mm
Weather Cloud Vis
km
Sea
Height
m
Swell
Dir  Spd
kts
Gust
kts
hPa Trend Height
m
Period
s
Dir
17/05:30am 9.3 NNE 6 9 1019.4 - - - - - - - - -
17/05:00am 9.4 NNE 6 9 1019.3 - - - - - - - - -
17/04:30am 9.4 ENE 3 5 1019.3 - - - - - - - - -
17/04:00am 9.5 NNE 5 9 1019.2 - - - - - - - - -
17/03:30am 9.6 NNE 5 8 1019.4 - - - - - - - - -
17/03:00am 9.6 NE 4 7 1019.4 - - - - - - - - -
17/02:30am 9.7 NE 3 6 1019.5 - - - - - - - - -
17/02:00am 9.8 NE 3 6 1019.6 - - - - - - - - -
17/01:30am 10.0 ENE 4 7 1019.8 - - - - - - - - -
17/01:00am 14.4 SW 8 13 1019.9 - - - - - - - - -
17/12:30am 13.5 SSE 2 8 1020.0 - - - - - - - - -
17/12:00am 10.9 N 2 7 1020.0 - - - - - - - - -
 
Date/Time
WST
Temp
°C
Wind Pressure Rain since
9am
mm
Weather Cloud Vis
km
Sea
Height
m
Swell
Dir  Spd
kts
Gust
kts
hPa Trend Height
m
Period
s
Dir
16/11:30pm 11.5 NE 2 5 1020.3 - - - - - - - - -
16/11:00pm 12.7 SE 1 6 1020.4 - - - - - - - - -
16/10:30pm 13.0 SSE 5 10 1020.8 - - - - - - - - -
16/10:00pm 14.5 SW 9 15 1020.7 - - - - - - - - -
16/09:30pm 14.8 SW 9 15 1020.8 - - - - - - - - -
16/09:00pm 14.3 SSW 6 12 1020.7 - - - - - - - - -
16/08:30pm 13.9 S 4 9 1020.7 - - - - - - - - -
16/08:00pm 14.8 SW 11 16 1020.6 - - - - - - - - -
16/07:30pm 14.6 SW 11 18 1020.4 - - - - - - - - -
16/07:00pm 14.8 SW 14 20 1020.1 - - - - - - - - -
16/06:30pm 14.8 SW 9 19 1019.8 - - - - - - - - -
16/06:00pm 13.8 SSW 5 13 1019.6 - - - - - - - - -
16/05:30pm 14.9 SW 13 19 1019.3 - - - - - - - - -
16/05:00pm 14.9 SW 12 18 1019.0 - - - - - - - - -
16/04:30pm 15.0 SW 13 20 1019.0 - - - - - - - - -
16/04:00pm 15.0 SW 15 22 1018.9 - - - - - - - - -
16/03:30pm 15.1 SW 15 24 1018.7 - - - - - - - - -
16/03:00pm 15.1 SW 14 21 1018.6 - - - - - - - - -
16/02:30pm 15.3 SW 14 21 1018.4 - - - - - - - - -
16/02:00pm 15.2 SW 14 20 1018.4 - - - - - - - - -
16/01:30pm 15.3 SW 14 21 1018.4 - - - - - - - - -
16/01:00pm 15.2 SW 14 22 1018.6 - - - - - - - - -
16/12:30pm 14.9 SW 11 18 1018.8 - - - - - - - - -
16/12:00pm 14.1 SW 16 25 1019.2 - - - - - - - - -
16/11:46am 13.5 SW 15 26 1019.1 - - - - - - - - -
16/11:30am 15.3 SW 14 21 1018.9 - - - - - - - - -
16/11:00am 15.1 SW 14 23 1019.1 - - - - - - - - -
16/10:30am 15.2 SW 14 19 1018.9 - - - - - - - - -
16/10:00am 15.1 SW 14 21 1018.8 - - - - - - - - -
16/09:30am 15.0 SW 17 23 1018.6 - - - - - - - - -
16/09:00am 15.3 SW 17 24 1018.3 - - - - - - - - -
16/08:30am 15.1 SW 15 23 1017.9 - - - - - - - - -
16/08:00am 15.0 SW 11 20 1017.6 - - - - - - - - -
16/07:30am 14.9 SW 15 25 1017.2 - - - - - - - - -
16/07:00am 14.8 SW 16 26 1016.9 - - - - - - - - -
16/06:32am 14.7 SW 17 27 1016.5 - - - - - - - - -
16/06:30am 14.8 SW 18 27 1016.5 - - - - - - - - -
16/06:13am 14.1 SW 15 27 1016.2 - - - - - - - - -
16/06:00am 14.5 SW 10 19 1016.1 - - - - - - - - -
16/05:30am 12.9 WSW 17 24 1016.1 - - - - - - - - -
16/05:00am 15.3 WSW 16 22 1015.5 - - - - - - - - -
16/04:35am 13.8 SW 15 25 1015.6 - - - - - - - - -
16/04:30am 14.1 SW 17 25 1015.5 - - - - - - - - -
16/04:00am 15.3 WSW 14 21 1015.6 - - - - - - - - -
16/03:30am 15.6 WSW 13 21 1015.6 - - - - - - - - -
16/03:00am 15.1 W 11 19 1015.8 - - - - - - - - -
16/02:30am 15.1 W 12 18 1016.1 - - - - - - - - -
16/02:00am 14.7 W 13 21 1016.2 - - - - - - - - -
16/01:30am 14.6 WSW 13 20 1016.3 - - - - - - - - -
16/01:00am 15.4 WSW 14 21 1016.5 - - - - - - - - -
16/12:30am 13.8 WSW 19 25 1016.6 - - - - - - - - -
16/12:26am 14.4 WSW 16 25 1016.6 - - - - - - - - -
16/12:00am 14.7 W 11 16 1016.7 - - - - - - - - -
 
Date/Time
WST
Temp
°C
Wind Pressure Rain since
9am
mm
Weather Cloud Vis
km
Sea
Height
m
Swell
Dir  Spd
kts
Gust
kts
hPa Trend Height
m
Period
s
Dir
15/11:30pm 14.8 WSW 14 19 1016.9 - - - - - - - - -
15/11:00pm 15.0 WSW 14 19 1017.1 - - - - - - - - -
15/10:30pm 14.6 WSW 16 25 1017.3 - - - - - - - - -
15/10:29pm 14.6 WSW 16 25 1017.3 - - - - - - - - -
15/10:00pm 14.0 W 8 14 1017.8 - - - - - - - - -
15/09:30pm 14.9 WSW 15 21 1017.9 - - - - - - - - -
15/09:00pm 14.7 WSW 10 15 1017.9 - - - - - - - - -
15/08:39pm 13.4 WSW 15 25 1018.1 - - - - - - - - -
15/08:30pm 15.2 WSW 11 15 1018.0 - - - - - - - - -
15/08:00pm 14.7 WSW 17 24 1018.2 - - - - - - - - -
15/07:30pm 15.3 WSW 14 21 1017.9 - - - - - - - - -
15/07:00pm 14.1 SW 14 21 1017.9 - - - - - - - - -
15/06:30pm 14.7 WSW 11 15 1017.7 - - - - - - - - -
15/06:00pm 15.0 WSW 13 20 1017.5 - - - - - - - - -
15/05:30pm 15.9 WSW 13 18 1017.2 - - - - - - - - -
15/05:00pm 15.8 WSW 16 23 1017.1 - - - - - - - - -
15/04:30pm 15.5 WSW 10 15 1017.1 - - - - - - - - -
15/04:00pm 15.5 WSW 16 21 1016.9 - - - - - - - - -
15/03:30pm 15.8 WSW 13 19 1017.0 - - - - - - - - -
15/03:00pm 15.0 WSW 13 22 1016.8 - - - - - - - - -
15/02:30pm 15.6 WSW 15 22 1016.6 - - - - - - - - -
15/02:00pm 15.4 WSW 13 21 1016.6 - - - - - - - - -
15/01:30pm 15.7 WSW 16 24 1016.4 - - - - - - - - -
15/01:00pm 15.4 W 16 21 1016.7 - - - - - - - - -
15/12:30pm 15.9 WSW 18 25 1016.5 - - - - - - - - -
15/12:00pm 15.3 WSW 14 19 1016.9 - - - - - - - - -
15/11:46am 14.7 SW 17 28 1016.9 - - - - - - - - -
15/11:30am 15.8 WSW 18 22 1016.8 - - - - - - - - -
15/11:00am 15.6 WSW 18 23 1016.8 - - - - - - - - -
15/10:37am 14.4 WSW 17 27 1016.9 - - - - - - - - -
15/10:30am 14.4 WSW 19 27 1017.0 - - - - - - - - -
15/10:00am 15.3 WSW 16 22 1016.6 - - - - - - - - -
15/09:34am 14.3 WSW 16 26 1016.5 - - - - - - - - -
15/09:30am 14.2 WSW 18 26 1016.5 - - - - - - - - -
15/09:04am 14.9 WSW 15 25 1016.0 - - - - - - - - -
15/09:00am 15.1 WSW 16 25 1016.0 - - - - - - - - -
15/08:33am 15.2 WSW 16 27 1015.5 - - - - - - - - -
15/08:30am 15.0 WSW 15 23 1015.5 - - - - - - - - -
15/08:07am 15.2 SW 15 25 1015.0 - - - - - - - - -
15/08:00am 14.8 SW 17 25 1014.9 - - - - - - - - -
15/07:30am 15.2 WSW 22 31 1014.3 - - - - - - - - -
15/07:21am 15.4 WSW 19 31 1014.2 - - - - - - - - -
15/07:00am 14.8 WSW 17 25 1014.1 - - - - - - - - -
15/06:37am 14.4 WSW 17 35 1013.6 - - - - - - - - -
15/06:30am 14.2 WSW 16 23 1013.6 - - - - - - - - -
15/06:00am 15.0 WSW 20 29 1013.0 - - - - - - - - -
15/05:30am 15.1 WSW 19 28 1012.5 - - - - - - - - -
15/05:02am 15.0 WSW 22 32 1012.1 - - - - - - - - -
15/05:00am 15.0 WSW 23 32 1012.0 - - - - - - - - -
15/04:41am 14.6 WSW 20 31 1011.8 - - - - - - - - -
15/04:30am 15.1 WSW 22 29 1011.5 - - - - - - - - -
15/04:00am 11.2 WSW 21 39 1011.6 - - - - - - - - -
15/03:58am 14.0 WSW 20 38 1011.3 - - - - - - - - -
15/03:47am 15.1 WSW 18 28 1011.1 - - - - - - - - -
15/03:30am 14.7 WSW 24 33 1011.0 - - - - - - - - -
15/03:10am 11.3 WSW 23 39 1011.1 - - - - - - - - -
15/03:08am 11.4 WSW 22 39 1011.0 - - - - - - - - -
15/03:06am 15.2 WSW 19 35 1011.0 - - - - - - - - -
15/03:00am 15.3 WSW 20 29 1010.7 - - - - - - - - -
15/02:30am 15.3 WSW 18 28 1010.8 - - - - - - - - -
15/02:00am 13.4 WSW 22 36 1010.7 - - - - - - - - -
15/01:36am 15.1 WSW 22 33 1010.4 - - - - - - - - -
15/01:30am 15.0 WSW 21 33 1010.3 - - - - - - - - -
15/01:24am 15.7 W 15 25 1010.4 - - - - - - - - -
15/01:00am 15.3 W 16 25 1010.4 - - - - - - - - -
15/12:30am 15.0 W 14 27 1010.4 - - - - - - - - -
15/12:21am 15.3 W 16 27 1010.4 - - - - - - - - -
15/12:00am 14.8 W 16 25 1010.4 - - - - - - - - -
 
Date/Time
WST
Temp
°C
Wind Pressure Rain since
9am
mm
Weather Cloud Vis
km
Sea
Height
m
Swell
Dir  Spd
kts
Gust
kts
hPa Trend Height
m
Period
s
Dir
14/11:45pm 15.7 W 15 26 1010.4 - - - - - - - - -
14/11:30pm 14.9 WNW 11 20 1010.5 - - - - - - - - -
14/11:00pm 14.8 WSW 16 23 1010.4 - - - - - - - - -
14/10:35pm 15.7 W 15 26 1010.7 - - - - - - - - -
14/10:30pm 15.4 W 12 21 1010.7 - - - - - - - - -
14/10:01pm 13.9 W 19 35 1010.9 - - - - - - - - -
14/10:00pm 14.1 W 19 35 1010.9 - - - - - - - - -
14/09:59pm 14.4 W 17 35 1010.8 - - - - - - - - -
14/09:30pm 14.2 WNW 16 32 1010.7 - - - - - - - - -
14/09:09pm 15.9 W 15 25 1010.6 - - - - - - - - -
14/09:00pm 15.4 W 12 21 1010.7 - - - - - - - - -
14/08:30pm 14.0 W 17 32 1010.7 - - - - - - - - -
14/08:25pm 14.1 W 15 32 1010.8 - - - - - - - - -
14/08:00pm 14.7 WNW 12 21 1010.7 - - - - - - - - -
14/07:30pm 14.9 WNW 13 23 1010.5 - - - - - - - - -
14/07:03pm 15.8 W 15 28 1010.1 - - - - - - - - -
14/07:00pm 16.5 WNW 14 23 1010.0 - - - - - - - - -
14/06:30pm 15.5 WNW 12 21 1009.8 - - - - - - - - -
14/06:06pm 14.8 W 15 29 1009.7 - - - - - - - - -
14/06:00pm 15.8 W 11 21 1009.4 - - - - - - - - -
14/05:30pm 16.3 WNW 13 22 1009.3 - - - - - - - - -
14/05:00pm 16.4 WNW 13 21 1009.2 - - - - - - - - -
14/04:33pm 16.5 W 16 27 1009.2 - - - - - - - - -
14/04:30pm 16.4 W 16 24 1009.2 - - - - - - - - -
14/04:00pm 16.3 W 14 21 1008.8 - - - - - - - - -
14/03:33pm 16.5 W 15 26 1008.9 - - - - - - - - -
14/03:30pm 16.5 W 17 26 1008.9 - - - - - - - - -
14/03:00pm 16.7 W 15 25 1008.7 - - - - - - - - -
14/02:35pm 16.7 W 16 27 1008.6 - - - - - - - - -
14/02:30pm 16.6 W 16 26 1008.6 - - - - - - - - -
14/02:18pm 16.8 W 16 26 1008.5 - - - - - - - - -
14/02:00pm 16.7 W 16 25 1008.5 - - - - - - - - -
14/01:30pm 16.9 W 18 29 1008.4 - - - - - - - - -
14/01:00pm 16.7 W 19 32 1008.2 - - - - - - - - -
14/12:30pm 14.4 W 17 30 1008.4 - - - - - - - - -
14/12:01pm 16.5 W 17 27 1008.1 - - - - - - - - -
14/12:00pm 16.3 W 17 26 1008.1 - - - - - - - - -
14/11:33am 16.1 W 16 26 1008.0 - - - - - - - - -
14/11:30am 16.0 W 17 26 1008.0 - - - - - - - - -
14/11:00am 17.2 W 17 29 1007.5 - - - - - - - - -
14/10:30am 15.8 W 16 27 1007.3 - - - - - - - - -
14/10:00am 16.2 W 20 33 1007.0 - - - - - - - - -
14/09:50am 15.2 W 15 34 1007.0 - - - - - - - - -
14/09:30am 16.9 WNW 14 22 1006.3 - - - - - - - - -
14/09:00am 15.4 W 17 31 1006.2 - - - - - - - - -
14/08:49am 18.0 NW 16 34 1005.9 - - - - - - - - -
14/08:30am 18.3 NW 12 21 1005.5 - - - - - - - - -
14/08:00am 18.2 WNW 13 24 1005.3 - - - - - - - - -
14/07:41am 18.2 WNW 15 26 1005.4 - - - - - - - - -
14/07:30am 18.0 WNW 14 25 1005.5 - - - - - - - - -
14/07:00am 17.9 WNW 13 23 1005.2 - - - - - - - - -
14/06:30am 17.6 WNW 14 26 1005.3 - - - - - - - - -
14/06:00am 17.3 WNW 12 23 1005.1 - - - - - - - - -

Other Formats:

Comma delimited format used in spreadsheet applications
http://www.bom.gov.au/fwo/IDW60701/IDW60701.95605.axf

JavaScript Object Notation format (JSON) in row-major order
http://www.bom.gov.au/fwo/IDW60701/IDW60701.95605.json